Flight Track Log - Related Links

Times and Time Zones

All times are in EDT time to prevent confusion due to time zone crossing. See the ASQ5740 flight status page for this flight to view local times or setup timezone preferences in your user account.

Time Position Orientation Groundspeed Altitude Reporting Facility
EDT Latitude Longitude Course Direction KTS km/h feet Rate Location/Type
Tue 12:39:37 38.9989 -77.4558 72° East 210 389 2,200  Level Washington Center
Tue 12:40:38 39.0614 -77.4708 349° North 270 501 4,900 2,765 Climbing Washington Center
Tue 12:41:00 39.0001 -77.0828 72° East  Level FlightAware Approximate
Tue 12:41:32 39.1167 -77.4333 28° Northeast 277 513 7,500  Level Potomac TRACON
Tue 12:42:00 39.0167 -76.9589 90° East  Level FlightAware Approximate
Tue 12:42:33 39.1500 -77.3333 67° East 290 538 10,100  Level Potomac TRACON
Tue 12:43:00 39.0449 -76.8373 72° East  Level FlightAware Approximate
Tue 12:43:33 39.1500 -77.2167 90° East 322 597 12,200  Level Potomac TRACON
Tue 12:44:00 39.0593 -76.7128 72° East  Level FlightAware Approximate
Tue 12:45:39 39.1075 -76.9800 103° East 346 641 15,300  Level Washington Center
Tue 12:46:37 39.0861 -76.8458 102° East 368 681 16,300 1,160 Climbing Washington Center
Tue 12:47:38 39.0644 -76.7064 101° East 386 715 17,600 1,180 Climbing Washington Center
Tue 12:48:39 39.0469 -76.5617 99° East 396 734 18,700 1,160 Climbing Washington Center
Tue 12:49:37 39.0606 -76.4231 83° East 389 721 19,900 1,068 Climbing Washington Center
Tue 12:50:37 39.0947 -76.2817 73° East 389 721 20,800 843 Climbing Washington Center
Tue 12:51:38 39.1331 -76.1347 71° East 405 750 21,600 836 Climbing Washington Center
Tue 12:52:39 39.1669 -75.9878 73° East 416 771 22,500 893 Climbing Washington Center
Tue 12:53:39 39.2153 -75.8514 65° Northeast 421 779 23,400 908 Climbing Washington Center
Tue 12:54:38 39.2967 -75.7444 45° Northeast 412 763 24,300 900 Climbing Washington Center
Tue 12:55:39 39.3844 -75.6344 44° Northeast 417 772 25,200 893 Climbing Washington Center
Tue 12:56:39 39.4803 -75.5486 35° Northeast 417 772 26,100 750 Climbing Washington Center
Tue 12:57:39 39.5675 -75.4408 44° Northeast 417 772 26,700 559 Climbing Washington Center
Tue 12:58:37 39.6467 -75.3194 50° Northeast 422 782 27,200 504 Climbing Washington Center
Tue 12:59:38 39.7275 -75.2003 49° Northeast 435 806 27,700 486 Climbing Washington Center
Tue 13:01:05 39.8389 -75.0261 50° Northeast 470 871 28,400 816 Climbing New York Center
Tue 13:02:05 39.9261 -74.9150 44° Northeast 456 845 29,700 1,289 Climbing New York Center
Tue 13:03:06 40.0150 -74.8147 41° Northeast 430 797 31,000 645 Climbing New York Center
Tue 13:04:06 40.1086 -74.7006 43° Northeast 415 769 31,000  Level New York Center
Tue 13:05:03 40.1889 -74.6047 42° Northeast 415 769 31,000  Level New York Center
Tue 13:06:04 40.2842 -74.4903 42° Northeast 414 766 31,000  Level New York Center
Tue 13:07:05 40.3686 -74.3858 43° Northeast 414 766 31,000  Level New York Center
Tue 13:08:04 40.4553 -74.2842 42° Northeast 409 758 31,000  Level New York Center
Tue 13:09:04 40.5375 -74.1817 43° Northeast 409 758 31,000  Level New York Center
Tue 13:11:14 40.7081 -73.9789 42° Northeast 403 747 31,000  Level Boston Center
Tue 13:12:14 40.7886 -73.8819 42° Northeast 393 727 31,000  Level Boston Center
Tue 13:13:14 40.8708 -73.7933 39° Northeast 393 727 31,000  Level Boston Center
Tue 13:14:14 40.9731 -73.7925 360° North 354 655 31,000  Level Boston Center
Tue 13:15:14 41.0731 -73.7975 358° North 354 655 31,000  Level Boston Center
Tue 13:16:14 41.1708 -73.7994 359° North 354 655 31,000  Level Boston Center
Tue 13:17:14 41.2753 -73.7825 North 354 655 31,000  Level Boston Center
Tue 13:18:13 41.3778 -73.7625 North 364 674 31,000  Level Boston Center
Tue 13:19:13 41.4800 -73.7425 North 370 686 31,000  Level Boston Center
Tue 13:20:14 41.5844 -73.7222 North 370 686 31,000  Level Boston Center
Tue 13:21:14 41.6931 -73.6994 North 375 695 31,000  Level Boston Center
Tue 13:22:14 41.7953 -73.6875 North 370 686 31,000  Level Boston Center
Tue 13:23:14 41.9019 -73.6675 North 370 686 31,000  Level Boston Center
Tue 13:24:14 42.0064 -73.6469 North 370 686 31,000  Level Boston Center
Tue 13:25:13 42.1169 -73.6211 10° North 384 711 31,000  Level Boston Center
Tue 13:26:14 42.2214 -73.6008 North 384 711 31,000  Level Boston Center
Tue 13:27:14 42.3236 -73.5997 360° North 384 711 31,000  Level Boston Center
Tue 13:28:14 42.4339 -73.6186 353° North 364 674 31,000  Level Boston Center
Tue 13:29:13 42.5381 -73.6264 357° North 364 674 31,000  Level Boston Center
Tue 13:30:14 42.6400 -73.6339 357° North 364 674 31,000  Level Boston Center
Tue 13:31:13 42.7422 -73.6417 357° North 364 674 31,000  Level Boston Center
Tue 13:32:14 42.8442 -73.6464 358° North 364 674 31,000 -50 Level Boston Center
Tue 13:33:14 42.9442 -73.6569 356° North 364 674 30,900 -900 Descending Boston Center
Tue 13:34:14 43.0503 -73.6589 359° North 364 674 29,200 -1,664 Descending Boston Center
Tue 13:35:13 43.1383 -73.6294 14° North 364 674 27,600 -1,700 Descending Boston Center
Tue 13:36:14 43.2367 -73.5944 15° North 364 674 25,800 -1,736 Descending Boston Center
Tue 13:37:14 43.3286 -73.5617 15° North 349 647 24,100 -900 Descending Boston Center
Tue 13:38:14 43.4206 -73.5292 14° North 339 628 24,000 -50 Descending Boston Center
Tue 13:39:14 43.5147 -73.4964 14° North 339 628 24,000 -900 Level Boston Center
Tue 13:40:14 43.6108 -73.4753 North 339 628 22,200 -2,300 Descending Boston Center
Tue 13:41:14 43.7169 -73.4683 North 339 628 19,400 -2,500 Descending Boston Center
Tue 13:42:14 43.8067 -73.4583 North 354 655 17,200 -2,400 Descending Boston Center
Tue 13:43:14 43.9006 -73.4456 North 347 642 14,600 -2,600 Descending Boston Center
Tue 13:44:14 43.9883 -73.4125 15° North 333 616 12,000 -2,050 Descending Boston Center
Tue 13:45:14 44.0700 -73.3675 22° Northeast 318 589 10,500 -1,750 Descending Boston Center
Tue 13:46:14 44.1514 -73.3428 12° North 298 552 8,500 -1,966 Descending Boston Center
Tue 13:47:13 44.2286 -73.3325 North 286 529 6,600 -2,000 Descending Boston Center
Tue 13:48:14 44.3058 -73.3278 North 280 518 4,500 -1,785 Descending Boston Center
Tue 13:49:14 44.3828 -73.3347 356° North 269 499 3,000 -1,100 Descending Boston Center
Tue 13:50:14 44.4456 -73.3242 North 244 452 2,300 -400 Descending Boston Center
Tue 13:51:14 44.5000 -73.2869 26° Northeast 219 406 2,200 -100 Descending Boston Center

Login

Don't have an account? Register now (free) for customized features, flight alerts, and more!